sensor_id;sensor_type;location;lat;lon;timestamp;temperature;humidity
439;DHT22;206;48.782;9.252;2022-09-01T00:01:55;18.60;68.60
439;DHT22;206;48.782;9.252;2022-09-01T00:04:23;18.60;68.80
439;DHT22;206;48.782;9.252;2022-09-01T00:06:51;18.60;69.10
439;DHT22;206;48.782;9.252;2022-09-01T00:09:20;18.60;69.90
439;DHT22;206;48.782;9.252;2022-09-01T00:11:50;18.60;70.50
439;DHT22;206;48.782;9.252;2022-09-01T00:14:23;18.60;70.60
439;DHT22;206;48.782;9.252;2022-09-01T00:16:49;18.60;70.30
439;DHT22;206;48.782;9.252;2022-09-01T00:19:14;18.60;70.20
439;DHT22;206;48.782;9.252;2022-09-01T00:21:43;18.60;69.90
439;DHT22;206;48.782;9.252;2022-09-01T00:24:10;18.60;69.70
439;DHT22;206;48.782;9.252;2022-09-01T00:26:36;18.60;69.90
439;DHT22;206;48.782;9.252;2022-09-01T00:29:03;18.60;69.40
439;DHT22;206;48.782;9.252;2022-09-01T00:31:29;18.60;69.20
439;DHT22;206;48.782;9.252;2022-09-01T00:33:55;18.60;69.20
439;DHT22;206;48.782;9.252;2022-09-01T00:36:21;18.60;69.20
439;DHT22;206;48.782;9.252;2022-09-01T00:38:47;18.60;68.90
439;DHT22;206;48.782;9.252;2022-09-01T00:41:13;18.60;68.80
439;DHT22;206;48.782;9.252;2022-09-01T00:43:47;18.60;68.80
439;DHT22;206;48.782;9.252;2022-09-01T00:46:22;18.60;69.20
439;DHT22;206;48.782;9.252;2022-09-01T00:48:53;18.60;69.20
439;DHT22;206;48.782;9.252;2022-09-01T00:51:20;18.60;69.10
439;DHT22;206;48.782;9.252;2022-09-01T00:53:46;18.50;68.90
439;DHT22;206;48.782;9.252;2022-09-01T00:56:12;18.50;68.80
439;DHT22;206;48.782;9.252;2022-09-01T00:58:39;18.50;68.60
439;DHT22;206;48.782;9.252;2022-09-01T01:01:06;18.50;68.40
439;DHT22;206;48.782;9.252;2022-09-01T01:03:32;18.50;68.10
439;DHT22;206;48.782;9.252;2022-09-01T01:06:02;18.50;67.80
439;DHT22;206;48.782;9.252;2022-09-01T01:08:32;18.50;67.00
439;DHT22;206;48.782;9.252;2022-09-01T01:11:09;18.50;66.80
439;DHT22;206;48.782;9.252;2022-09-01T01:16:13;18.40;67.30
439;DHT22;206;48.782;9.252;2022-09-01T01:18:40;18.40;67.80
439;DHT22;206;48.782;9.252;2022-09-01T01:21:11;18.30;67.90
439;DHT22;206;48.782;9.252;2022-09-01T01:24:20;18.30;68.00
439;DHT22;206;48.782;9.252;2022-09-01T01:26:46;18.30;68.40
439;DHT22;206;48.782;9.252;2022-09-01T01:29:13;18.30;68.20
439;DHT22;206;48.782;9.252;2022-09-01T01:31:39;18.30;68.30
439;DHT22;206;48.782;9.252;2022-09-01T01:34:04;18.30;68.40
439;DHT22;206;48.782;9.252;2022-09-01T01:36:34;18.30;68.50
439;DHT22;206;48.782;9.252;2022-09-01T01:39:07;18.30;68.90
439;DHT22;206;48.782;9.252;2022-09-01T01:41:34;18.30;68.90
439;DHT22;206;48.782;9.252;2022-09-01T01:44:01;18.30;69.20
439;DHT22;206;48.782;9.252;2022-09-01T01:46:32;18.30;69.40
439;DHT22;206;48.782;9.252;2022-09-01T01:48:58;18.20;68.80
439;DHT22;206;48.782;9.252;2022-09-01T01:51:27;18.20;68.10
439;DHT22;206;48.782;9.252;2022-09-01T01:53:54;18.20;67.30
439;DHT22;206;48.782;9.252;2022-09-01T01:56:21;18.10;66.60
439;DHT22;206;48.782;9.252;2022-09-01T01:58:53;18.10;65.70
439;DHT22;206;48.782;9.252;2022-09-01T02:01:21;18.10;65.40
439;DHT22;206;48.782;9.252;2022-09-01T02:03:49;18.00;65.60
439;DHT22;206;48.782;9.252;2022-09-01T02:06:16;18.00;65.50
439;DHT22;206;48.782;9.252;2022-09-01T02:08:44;18.00;65.60
439;DHT22;206;48.782;9.252;2022-09-01T02:11:09;17.90;65.70
439;DHT22;206;48.782;9.252;2022-09-01T02:13:37;17.90;65.40
439;DHT22;206;48.782;9.252;2022-09-01T02:16:07;17.80;65.80
439;DHT22;206;48.782;9.252;2022-09-01T02:18:43;17.80;66.00
439;DHT22;206;48.782;9.252;2022-09-01T02:21:13;17.80;66.00
439;DHT22;206;48.782;9.252;2022-09-01T02:23:46;17.80;66.50
439;DHT22;206;48.782;9.252;2022-09-01T02:26:13;17.80;66.80
439;DHT22;206;48.782;9.252;2022-09-01T02:28:41;17.70;66.40
439;DHT22;206;48.782;9.252;2022-09-01T02:31:09;17.70;66.40
439;DHT22;206;48.782;9.252;2022-09-01T02:33:36;17.70;66.30
439;DHT22;206;48.782;9.252;2022-09-01T02:36:06;17.70;66.40
439;DHT22;206;48.782;9.252;2022-09-01T02:38:33;17.70;66.50
439;DHT22;206;48.782;9.252;2022-09-01T02:41:00;17.70;66.80
439;DHT22;206;48.782;9.252;2022-09-01T02:43:27;17.70;67.40
439;DHT22;206;48.782;9.252;2022-09-01T02:45:55;17.70;67.60
439;DHT22;206;48.782;9.252;2022-09-01T02:50:52;17.70;67.90
439;DHT22;206;48.782;9.252;2022-09-01T02:53:18;17.70;67.80
439;DHT22;206;48.782;9.252;2022-09-01T02:55:44;17.80;68.10
439;DHT22;206;48.782;9.252;2022-09-01T02:58:10;17.80;67.70
439;DHT22;206;48.782;9.252;2022-09-01T03:00:41;17.80;67.90
439;DHT22;206;48.782;9.252;2022-09-01T03:03:08;17.80;67.60
439;DHT22;206;48.782;9.252;2022-09-01T03:05:35;17.80;67.50
439;DHT22;206;48.782;9.252;2022-09-01T03:08:06;17.80;67.40
439;DHT22;206;48.782;9.252;2022-09-01T03:10:37;17.80;67.00
439;DHT22;206;48.782;9.252;2022-09-01T03:13:09;17.70;67.20
439;DHT22;206;48.782;9.252;2022-09-01T03:15:36;17.70;65.80
439;DHT22;206;48.782;9.252;2022-09-01T03:18:03;17.60;64.50
439;DHT22;206;48.782;9.252;2022-09-01T03:20:31;17.60;64.30
439;DHT22;206;48.782;9.252;2022-09-01T03:22:59;17.50;64.50
439;DHT22;206;48.782;9.252;2022-09-01T03:25:24;17.50;65.00
439;DHT22;206;48.782;9.252;2022-09-01T03:27:51;17.40;65.00
439;DHT22;206;48.782;9.252;2022-09-01T03:30:18;17.50;65.30
439;DHT22;206;48.782;9.252;2022-09-01T03:32:43;17.40;65.70
439;DHT22;206;48.782;9.252;2022-09-01T03:35:10;17.40;66.10
439;DHT22;206;48.782;9.252;2022-09-01T03:37:36;17.40;66.40
439;DHT22;206;48.782;9.252;2022-09-01T03:40:05;17.40;66.40
439;DHT22;206;48.782;9.252;2022-09-01T03:42:31;17.40;66.20
439;DHT22;206;48.782;9.252;2022-09-01T03:44:57;17.40;66.10
439;DHT22;206;48.782;9.252;2022-09-01T03:47:23;17.40;66.80
439;DHT22;206;48.782;9.252;2022-09-01T03:49:49;17.30;66.40
439;DHT22;206;48.782;9.252;2022-09-01T03:52:17;17.30;66.10
439;DHT22;206;48.782;9.252;2022-09-01T03:54:42;17.30;66.20
439;DHT22;206;48.782;9.252;2022-09-01T03:57:09;17.30;66.10
439;DHT22;206;48.782;9.252;2022-09-01T03:59:36;17.30;65.90
439;DHT22;206;48.782;9.252;2022-09-01T04:02:10;17.30;66.00
439;DHT22;206;48.782;9.252;2022-09-01T04:04:37;17.30;66.30
439;DHT22;206;48.782;9.252;2022-09-01T04:07:02;17.30;66.60
439;DHT22;206;48.782;9.252;2022-09-01T04:09:28;17.30;67.00
439;DHT22;206;48.782;9.252;2022-09-01T04:11:54;17.30;67.20
439;DHT22;206;48.782;9.252;2022-09-01T04:14:20;17.30;67.30
439;DHT22;206;48.782;9.252;2022-09-01T04:16:45;17.30;67.10
439;DHT22;206;48.782;9.252;2022-09-01T04:19:35;17.30;67.20
439;DHT22;206;48.782;9.252;2022-09-01T04:22:01;17.30;66.60
439;DHT22;206;48.782;9.252;2022-09-01T04:24:29;17.30;66.60
439;DHT22;206;48.782;9.252;2022-09-01T04:26:57;17.30;66.80
439;DHT22;206;48.782;9.252;2022-09-01T04:29:24;17.20;67.20
439;DHT22;206;48.782;9.252;2022-09-01T04:32:02;17.20;66.20
439;DHT22;206;48.782;9.252;2022-09-01T04:34:29;17.20;67.00
439;DHT22;206;48.782;9.252;2022-09-01T04:37:02;17.20;66.50
439;DHT22;206;48.782;9.252;2022-09-01T04:39:28;17.20;66.80
439;DHT22;206;48.782;9.252;2022-09-01T04:41:53;17.20;66.10
439;DHT22;206;48.782;9.252;2022-09-01T04:44:19;17.10;65.70
439;DHT22;206;48.782;9.252;2022-09-01T04:46:46;17.10;65.70
439;DHT22;206;48.782;9.252;2022-09-01T04:49:13;17.10;66.30
439;DHT22;206;48.782;9.252;2022-09-01T04:51:45;17.10;66.60
439;DHT22;206;48.782;9.252;2022-09-01T04:54:11;17.10;66.60
439;DHT22;206;48.782;9.252;2022-09-01T04:56:41;17.10;66.60
439;DHT22;206;48.782;9.252;2022-09-01T04:59:08;17.10;67.50
439;DHT22;206;48.782;9.252;2022-09-01T05:01:35;17.10;66.50
439;DHT22;206;48.782;9.252;2022-09-01T05:04:08;17.20;66.60
439;DHT22;206;48.782;9.252;2022-09-01T05:06:35;17.10;66.00
439;DHT22;206;48.782;9.252;2022-09-01T05:09:04;17.20;66.30
439;DHT22;206;48.782;9.252;2022-09-01T05:11:29;17.20;66.30
439;DHT22;206;48.782;9.252;2022-09-01T05:13:57;17.20;66.70
439;DHT22;206;48.782;9.252;2022-09-01T05:16:23;17.20;67.20
439;DHT22;206;48.782;9.252;2022-09-01T05:18:51;17.30;67.20
439;DHT22;206;48.782;9.252;2022-09-01T05:21:21;17.30;67.80
439;DHT22;206;48.782;9.252;2022-09-01T05:23:51;17.30;68.40
439;DHT22;206;48.782;9.252;2022-09-01T05:26:21;17.30;68.30
439;DHT22;206;48.782;9.252;2022-09-01T05:28:53;17.30;67.80
439;DHT22;206;48.782;9.252;2022-09-01T05:31:20;17.40;67.30
439;DHT22;206;48.782;9.252;2022-09-01T05:33:48;17.40;67.40
439;DHT22;206;48.782;9.252;2022-09-01T05:36:17;17.40;67.50
439;DHT22;206;48.782;9.252;2022-09-01T05:38:45;17.50;67.80
439;DHT22;206;48.782;9.252;2022-09-01T05:41:13;17.50;67.30
439;DHT22;206;48.782;9.252;2022-09-01T05:43:43;17.50;67.00
439;DHT22;206;48.782;9.252;2022-09-01T05:46:15;17.50;66.80
439;DHT22;206;48.782;9.252;2022-09-01T05:48:42;17.60;67.00
439;DHT22;206;48.782;9.252;2022-09-01T05:51:09;17.70;66.10
439;DHT22;206;48.782;9.252;2022-09-01T05:53:36;17.70;66.40
439;DHT22;206;48.782;9.252;2022-09-01T05:56:06;17.80;66.60
439;DHT22;206;48.782;9.252;2022-09-01T05:58:34;17.80;66.80
439;DHT22;206;48.782;9.252;2022-09-01T06:01:01;17.90;66.80
439;DHT22;206;48.782;9.252;2022-09-01T06:03:27;18.00;66.50
439;DHT22;206;48.782;9.252;2022-09-01T06:06:02;18.00;66.50
439;DHT22;206;48.782;9.252;2022-09-01T06:08:30;18.10;66.40
439;DHT22;206;48.782;9.252;2022-09-01T06:10:55;18.20;66.30
439;DHT22;206;48.782;9.252;2022-09-01T06:13:21;18.30;65.80
439;DHT22;206;48.782;9.252;2022-09-01T06:15:48;18.40;65.90
439;DHT22;206;48.782;9.252;2022-09-01T06:18:14;18.50;65.20
439;DHT22;206;48.782;9.252;2022-09-01T06:20:43;18.50;64.90
439;DHT22;206;48.782;9.252;2022-09-01T06:23:10;18.60;64.40
439;DHT22;206;48.782;9.252;2022-09-01T06:25:39;18.70;63.70
439;DHT22;206;48.782;9.252;2022-09-01T06:28:07;18.80;61.20
439;DHT22;206;48.782;9.252;2022-09-01T06:30:36;18.80;61.20
439;DHT22;206;48.782;9.252;2022-09-01T06:33:03;18.80;60.80
439;DHT22;206;48.782;9.252;2022-09-01T06:35:37;18.90;60.60
439;DHT22;206;48.782;9.252;2022-09-01T06:38:04;19.00;60.90
439;DHT22;206;48.782;9.252;2022-09-01T06:40:31;19.00;60.80
439;DHT22;206;48.782;9.252;2022-09-01T06:42:58;19.20;59.80
439;DHT22;206;48.782;9.252;2022-09-01T06:45:25;19.30;59.00
439;DHT22;206;48.782;9.252;2022-09-01T06:47:51;19.40;58.40
439;DHT22;206;48.782;9.252;2022-09-01T06:50:19;19.60;57.00
439;DHT22;206;48.782;9.252;2022-09-01T06:52:48;19.80;54.50
439;DHT22;206;48.782;9.252;2022-09-01T06:55:15;20.00;53.80
439;DHT22;206;48.782;9.252;2022-09-01T06:57:42;20.10;53.10
439;DHT22;206;48.782;9.252;2022-09-01T07:00:19;20.10;51.80
439;DHT22;206;48.782;9.252;2022-09-01T07:02:52;20.10;51.90
439;DHT22;206;48.782;9.252;2022-09-01T07:05:19;20.10;51.50
439;DHT22;206;48.782;9.252;2022-09-01T07:07:49;20.20;52.00
439;DHT22;206;48.782;9.252;2022-09-01T07:10:25;20.30;50.30
439;DHT22;206;48.782;9.252;2022-09-01T07:12:56;20.40;49.90
439;DHT22;206;48.782;9.252;2022-09-01T07:15:23;20.50;49.10
439;DHT22;206;48.782;9.252;2022-09-01T07:17:53;20.70;49.10
439;DHT22;206;48.782;9.252;2022-09-01T07:20:25;20.90;48.50
439;DHT22;206;48.782;9.252;2022-09-01T07:22:52;21.20;47.50
439;DHT22;206;48.782;9.252;2022-09-01T07:25:18;21.50;46.00
439;DHT22;206;48.782;9.252;2022-09-01T07:27:45;21.60;44.10
439;DHT22;206;48.782;9.252;2022-09-01T07:30:16;21.60;44.10
439;DHT22;206;48.782;9.252;2022-09-01T07:32:42;21.70;44.20
439;DHT22;206;48.782;9.252;2022-09-01T07:35:10;21.70;43.00
439;DHT22;206;48.782;9.252;2022-09-01T07:37:35;21.70;41.90
439;DHT22;206;48.782;9.252;2022-09-01T07:40:07;21.70;41.80
439;DHT22;206;48.782;9.252;2022-09-01T07:42:33;21.60;43.00
439;DHT22;206;48.782;9.252;2022-09-01T07:44:59;21.40;43.20
439;DHT22;206;48.782;9.252;2022-09-01T07:47:26;21.20;44.60
439;DHT22;206;48.782;9.252;2022-09-01T07:49:54;21.10;44.70
439;DHT22;206;48.782;9.252;2022-09-01T07:52:20;21.10;45.00
439;DHT22;206;48.782;9.252;2022-09-01T07:54:46;21.10;45.00
439;DHT22;206;48.782;9.252;2022-09-01T07:57:11;21.10;44.50
439;DHT22;206;48.782;9.252;2022-09-01T07:59:37;21.00;44.90
439;DHT22;206;48.782;9.252;2022-09-01T08:02:03;20.90;45.30
439;DHT22;206;48.782;9.252;2022-09-01T08:04:31;20.90;45.80
439;DHT22;206;48.782;9.252;2022-09-01T08:06:58;20.90;46.30
439;DHT22;206;48.782;9.252;2022-09-01T08:09:24;20.90;46.30
439;DHT22;206;48.782;9.252;2022-09-01T08:11:50;20.90;46.70
439;DHT22;206;48.782;9.252;2022-09-01T08:14:16;20.90;46.40
439;DHT22;206;48.782;9.252;2022-09-01T08:16:42;21.00;46.80
439;DHT22;206;48.782;9.252;2022-09-01T08:19:07;21.00;46.60
439;DHT22;206;48.782;9.252;2022-09-01T08:21:33;21.00;47.50
439;DHT22;206;48.782;9.252;2022-09-01T08:23:59;21.10;46.50
439;DHT22;206;48.782;9.252;2022-09-01T08:26:25;21.10;45.50
439;DHT22;206;48.782;9.252;2022-09-01T08:28:52;21.20;46.00
439;DHT22;206;48.782;9.252;2022-09-01T08:31:19;21.30;46.30
439;DHT22;206;48.782;9.252;2022-09-01T08:33:46;21.40;45.20
439;DHT22;206;48.782;9.252;2022-09-01T08:36:13;21.40;44.40
439;DHT22;206;48.782;9.252;2022-09-01T08:38:40;21.40;43.40
439;DHT22;206;48.782;9.252;2022-09-01T08:41:18;21.30;45.00
439;DHT22;206;48.782;9.252;2022-09-01T08:44:16;21.40;44.50
439;DHT22;206;48.782;9.252;2022-09-01T08:46:43;21.40;44.00
439;DHT22;206;48.782;9.252;2022-09-01T08:49:17;21.30;43.90
439;DHT22;206;48.782;9.252;2022-09-01T08:51:51;21.20;43.80
439;DHT22;206;48.782;9.252;2022-09-01T08:54:41;21.30;43.90
439;DHT22;206;48.782;9.252;2022-09-01T08:57:26;21.40;43.90
439;DHT22;206;48.782;9.252;2022-09-01T08:59:54;21.40;43.90
439;DHT22;206;48.782;9.252;2022-09-01T09:13:23;21.60;41.50
439;DHT22;206;48.782;9.252;2022-09-01T09:16:17;21.60;40.30
439;DHT22;206;48.782;9.252;2022-09-01T09:19:02;21.60;40.90
439;DHT22;206;48.782;9.252;2022-09-01T09:21:42;21.60;41.40
439;DHT22;206;48.782;9.252;2022-09-01T09:26:37;21.70;40.30
439;DHT22;206;48.782;9.252;2022-09-01T09:29:03;21.70;40.40
439;DHT22;206;48.782;9.252;2022-09-01T09:31:35;21.80;40.30
439;DHT22;206;48.782;9.252;2022-09-01T09:39:40;22.00;38.60
439;DHT22;206;48.782;9.252;2022-09-01T09:42:10;22.00;38.40
439;DHT22;206;48.782;9.252;2022-09-01T09:44:44;22.10;38.50
439;DHT22;206;48.782;9.252;2022-09-01T09:47:35;22.20;37.80
439;DHT22;206;48.782;9.252;2022-09-01T09:52:39;22.40;37.00
439;DHT22;206;48.782;9.252;2022-09-01T09:55:22;22.50;35.40
439;DHT22;206;48.782;9.252;2022-09-01T09:57:49;22.50;34.90
439;DHT22;206;48.782;9.252;2022-09-01T10:02:51;22.50;34.70
439;DHT22;206;48.782;9.252;2022-09-01T10:05:43;22.50;35.00
439;DHT22;206;48.782;9.252;2022-09-01T10:08:13;22.60;34.80
439;DHT22;206;48.782;9.252;2022-09-01T10:10:54;22.60;34.00
439;DHT22;206;48.782;9.252;2022-09-01T10:13:22;22.70;34.80
439;DHT22;206;48.782;9.252;2022-09-01T10:15:54;22.80;33.00
439;DHT22;206;48.782;9.252;2022-09-01T10:18:38;22.80;32.30
439;DHT22;206;48.782;9.252;2022-09-01T10:21:15;22.80;32.30
439;DHT22;206;48.782;9.252;2022-09-01T10:23:41;22.90;32.90
439;DHT22;206;48.782;9.252;2022-09-01T10:26:16;22.90;32.80
439;DHT22;206;48.782;9.252;2022-09-01T10:29:05;23.00;33.10
439;DHT22;206;48.782;9.252;2022-09-01T10:31:31;23.10;32.70
439;DHT22;206;48.782;9.252;2022-09-01T10:34:00;23.20;31.10
439;DHT22;206;48.782;9.252;2022-09-01T10:36:27;23.30;30.50
439;DHT22;206;48.782;9.252;2022-09-01T10:38:53;23.30;29.10
439;DHT22;206;48.782;9.252;2022-09-01T10:44:10;23.50;29.50
439;DHT22;206;48.782;9.252;2022-09-01T10:49:18;23.70;28.40
439;DHT22;206;48.782;9.252;2022-09-01T10:51:45;23.80;28.40
439;DHT22;206;48.782;9.252;2022-09-01T10:57:18;23.80;28.50
439;DHT22;206;48.782;9.252;2022-09-01T10:59:46;23.80;29.00
439;DHT22;206;48.782;9.252;2022-09-01T11:02:15;23.70;28.90
439;DHT22;206;48.782;9.252;2022-09-01T11:15:44;23.10;30.30
439;DHT22;206;48.782;9.252;2022-09-01T11:18:27;23.10;30.70
439;DHT22;206;48.782;9.252;2022-09-01T11:20:53;23.20;30.50
439;DHT22;206;48.782;9.252;2022-09-01T11:25:48;23.10;30.00
439;DHT22;206;48.782;9.252;2022-09-01T11:35:59;23.20;29.50
439;DHT22;206;48.782;9.252;2022-09-01T11:38:26;23.30;29.20
439;DHT22;206;48.782;9.252;2022-09-01T11:40:56;23.40;28.70
439;DHT22;206;48.782;9.252;2022-09-01T11:43:23;23.50;28.70
439;DHT22;206;48.782;9.252;2022-09-01T11:46:04;23.70;28.50
439;DHT22;206;48.782;9.252;2022-09-01T11:48:32;23.80;28.80
439;DHT22;206;48.782;9.252;2022-09-01T11:51:00;24.00;27.50
439;DHT22;206;48.782;9.252;2022-09-01T11:53:26;24.10;27.50
439;DHT22;206;48.782;9.252;2022-09-01T11:55:53;24.20;26.70
439;DHT22;206;48.782;9.252;2022-09-01T12:03:36;24.40;26.80
439;DHT22;206;48.782;9.252;2022-09-01T12:06:04;24.50;26.90
439;DHT22;206;48.782;9.252;2022-09-01T12:08:37;24.50;26.10
439;DHT22;206;48.782;9.252;2022-09-01T12:11:04;24.50;26.90
439;DHT22;206;48.782;9.252;2022-09-01T12:13:30;24.50;26.20
439;DHT22;206;48.782;9.252;2022-09-01T12:15:59;24.50;26.10
439;DHT22;206;48.782;9.252;2022-09-01T12:18:28;24.40;26.90
439;DHT22;206;48.782;9.252;2022-09-01T12:20:57;24.40;26.80
439;DHT22;206;48.782;9.252;2022-09-01T12:23:26;24.30;26.40
439;DHT22;206;48.782;9.252;2022-09-01T12:25:58;24.30;26.10
439;DHT22;206;48.782;9.252;2022-09-01T12:28:28;24.20;26.10
439;DHT22;206;48.782;9.252;2022-09-01T12:31:04;24.10;26.60
439;DHT22;206;48.782;9.252;2022-09-01T12:33:31;24.00;26.50
439;DHT22;206;48.782;9.252;2022-09-01T12:38:39;23.90;26.50
439;DHT22;206;48.782;9.252;2022-09-01T12:41:27;23.90;26.50
439;DHT22;206;48.782;9.252;2022-09-01T12:43:55;24.00;26.50
439;DHT22;206;48.782;9.252;2022-09-01T12:46:42;24.20;26.40
439;DHT22;206;48.782;9.252;2022-09-01T12:49:35;24.30;25.80
439;DHT22;206;48.782;9.252;2022-09-01T12:52:24;24.50;24.20
439;DHT22;206;48.782;9.252;2022-09-01T12:57:28;24.80;23.70
439;DHT22;206;48.782;9.252;2022-09-01T13:03:21;25.00;22.90
439;DHT22;206;48.782;9.252;2022-09-01T13:05:28;25.10;23.30
439;DHT22;206;48.782;9.252;2022-09-01T13:08:02;25.20;23.30
439;DHT22;206;48.782;9.252;2022-09-01T13:10:32;25.20;23.60
439;DHT22;206;48.782;9.252;2022-09-01T13:12:59;25.00;23.80
439;DHT22;206;48.782;9.252;2022-09-01T13:15:26;25.00;24.00
439;DHT22;206;48.782;9.252;2022-09-01T13:17:52;24.80;23.30
439;DHT22;206;48.782;9.252;2022-09-01T13:20:18;24.70;23.80
439;DHT22;206;48.782;9.252;2022-09-01T13:22:44;24.60;23.70
439;DHT22;206;48.782;9.252;2022-09-01T13:25:15;24.50;22.90
439;DHT22;206;48.782;9.252;2022-09-01T13:27:43;24.30;23.40
439;DHT22;206;48.782;9.252;2022-09-01T13:30:14;24.30;23.90
439;DHT22;206;48.782;9.252;2022-09-01T13:32:41;24.20;23.60
439;DHT22;206;48.782;9.252;2022-09-01T13:35:07;24.10;23.20
439;DHT22;206;48.782;9.252;2022-09-01T13:37:33;24.10;23.50
439;DHT22;206;48.782;9.252;2022-09-01T13:39:59;24.10;24.80
439;DHT22;206;48.782;9.252;2022-09-01T13:42:24;24.10;23.30
439;DHT22;206;48.782;9.252;2022-09-01T13:44:50;24.00;23.60
439;DHT22;206;48.782;9.252;2022-09-01T13:47:15;24.00;23.10
439;DHT22;206;48.782;9.252;2022-09-01T13:49:41;24.00;23.30
439;DHT22;206;48.782;9.252;2022-09-01T13:52:07;24.00;23.10
439;DHT22;206;48.782;9.252;2022-09-01T13:54:32;24.10;22.80
439;DHT22;206;48.782;9.252;2022-09-01T13:56:58;24.10;22.90
439;DHT22;206;48.782;9.252;2022-09-01T13:59:23;24.20;22.50
439;DHT22;206;48.782;9.252;2022-09-01T14:01:49;24.20;22.90
439;DHT22;206;48.782;9.252;2022-09-01T14:04:15;24.30;22.80
439;DHT22;206;48.782;9.252;2022-09-01T14:06:42;24.40;23.00
439;DHT22;206;48.782;9.252;2022-09-01T14:09:12;24.50;23.40
439;DHT22;206;48.782;9.252;2022-09-01T14:11:38;24.60;23.60
439;DHT22;206;48.782;9.252;2022-09-01T14:14:04;24.70;23.80
439;DHT22;206;48.782;9.252;2022-09-01T14:16:29;24.70;23.80
439;DHT22;206;48.782;9.252;2022-09-01T14:18:55;24.80;23.20
439;DHT22;206;48.782;9.252;2022-09-01T14:21:20;24.80;22.90
439;DHT22;206;48.782;9.252;2022-09-01T14:23:46;24.90;22.20
439;DHT22;206;48.782;9.252;2022-09-01T14:26:13;25.00;22.10
439;DHT22;206;48.782;9.252;2022-09-01T14:28:41;24.90;22.20
439;DHT22;206;48.782;9.252;2022-09-01T14:31:11;24.80;21.20
439;DHT22;206;48.782;9.252;2022-09-01T14:33:38;24.80;20.30
439;DHT22;206;48.782;9.252;2022-09-01T14:36:05;24.80;20.50
439;DHT22;206;48.782;9.252;2022-09-01T14:38:31;24.70;20.40
439;DHT22;206;48.782;9.252;2022-09-01T14:40:56;24.70;21.10
439;DHT22;206;48.782;9.252;2022-09-01T14:43:22;24.70;21.00
439;DHT22;206;48.782;9.252;2022-09-01T14:45:49;24.80;20.90
439;DHT22;206;48.782;9.252;2022-09-01T14:48:16;24.80;21.00
439;DHT22;206;48.782;9.252;2022-09-01T14:50:46;24.80;20.40
439;DHT22;206;48.782;9.252;2022-09-01T14:53:13;24.80;20.70
439;DHT22;206;48.782;9.252;2022-09-01T14:55:39;24.80;20.20
439;DHT22;206;48.782;9.252;2022-09-01T14:58:04;24.70;19.50
439;DHT22;206;48.782;9.252;2022-09-01T15:00:31;24.70;19.70
439;DHT22;206;48.782;9.252;2022-09-01T15:02:59;24.70;20.00
439;DHT22;206;48.782;9.252;2022-09-01T15:05:25;24.80;20.70
439;DHT22;206;48.782;9.252;2022-09-01T15:07:52;24.90;21.10
439;DHT22;206;48.782;9.252;2022-09-01T15:10:21;24.90;21.00
439;DHT22;206;48.782;9.252;2022-09-01T15:12:47;24.90;21.10
439;DHT22;206;48.782;9.252;2022-09-01T15:15:15;24.90;21.00
439;DHT22;206;48.782;9.252;2022-09-01T15:17:41;25.00;20.70
439;DHT22;206;48.782;9.252;2022-09-01T15:20:07;25.00;20.80
439;DHT22;206;48.782;9.252;2022-09-01T15:22:52;25.00;20.80
439;DHT22;206;48.782;9.252;2022-09-01T15:25:18;25.20;21.50
439;DHT22;206;48.782;9.252;2022-09-01T15:27:44;25.20;20.90
439;DHT22;206;48.782;9.252;2022-09-01T15:30:11;25.20;20.80
439;DHT22;206;48.782;9.252;2022-09-01T15:32:42;25.30;20.10
439;DHT22;206;48.782;9.252;2022-09-01T15:35:08;25.30;19.90
439;DHT22;206;48.782;9.252;2022-09-01T15:37:34;25.30;20.20
439;DHT22;206;48.782;9.252;2022-09-01T15:40:00;25.30;20.10
439;DHT22;206;48.782;9.252;2022-09-01T15:42:26;25.30;19.50
439;DHT22;206;48.782;9.252;2022-09-01T15:44:51;25.20;19.00
439;DHT22;206;48.782;9.252;2022-09-01T15:47:17;25.10;18.90
439;DHT22;206;48.782;9.252;2022-09-01T15:49:43;25.00;18.80
439;DHT22;206;48.782;9.252;2022-09-01T15:52:08;25.00;18.80
439;DHT22;206;48.782;9.252;2022-09-01T15:54:37;25.00;17.50
439;DHT22;206;48.782;9.252;2022-09-01T15:57:03;25.00;17.40
439;DHT22;206;48.782;9.252;2022-09-01T15:59:29;24.90;18.20
439;DHT22;206;48.782;9.252;2022-09-01T16:01:55;24.90;18.80
439;DHT22;206;48.782;9.252;2022-09-01T16:04:22;24.90;18.80
439;DHT22;206;48.782;9.252;2022-09-01T16:06:48;25.00;18.80
439;DHT22;206;48.782;9.252;2022-09-01T16:09:16;25.00;18.80
439;DHT22;206;48.782;9.252;2022-09-01T16:11:43;25.00;18.90
439;DHT22;206;48.782;9.252;2022-09-01T16:14:09;25.00;18.90
439;DHT22;206;48.782;9.252;2022-09-01T16:19:58;25.10;19.20
439;DHT22;206;48.782;9.252;2022-09-01T16:22:36;25.10;18.90
439;DHT22;206;48.782;9.252;2022-09-01T16:25:10;25.00;18.80
439;DHT22;206;48.782;9.252;2022-09-01T16:27:40;25.00;19.60
439;DHT22;206;48.782;9.252;2022-09-01T16:30:08;24.90;19.40
439;DHT22;206;48.782;9.252;2022-09-01T16:32:39;24.90;19.30
439;DHT22;206;48.782;9.252;2022-09-01T16:35:07;24.90;19.80
439;DHT22;206;48.782;9.252;2022-09-01T16:37:42;24.90;19.90
439;DHT22;206;48.782;9.252;2022-09-01T16:46:24;24.80;19.70
439;DHT22;206;48.782;9.252;2022-09-01T16:50:00;24.70;19.20
439;DHT22;206;48.782;9.252;2022-09-01T16:52:24;24.70;19.50
439;DHT22;206;48.782;9.252;2022-09-01T17:00:20;24.60;20.70
439;DHT22;206;48.782;9.252;2022-09-01T17:05:41;24.40;20.60
439;DHT22;206;48.782;9.252;2022-09-01T17:08:25;24.40;20.70
439;DHT22;206;48.782;9.252;2022-09-01T17:13:49;24.30;21.00
439;DHT22;206;48.782;9.252;2022-09-01T17:16:33;24.30;21.00
439;DHT22;206;48.782;9.252;2022-09-01T17:19:14;24.20;21.00
439;DHT22;206;48.782;9.252;2022-09-01T17:21:49;24.20;20.70
439;DHT22;206;48.782;9.252;2022-09-01T17:27:32;24.10;20.90
439;DHT22;206;48.782;9.252;2022-09-01T17:29:57;24.10;21.10
439;DHT22;206;48.782;9.252;2022-09-01T17:32:54;24.00;21.20
439;DHT22;206;48.782;9.252;2022-09-01T17:35:45;24.10;27.80
439;DHT22;206;48.782;9.252;2022-09-01T17:38:39;24.20;26.40
439;DHT22;206;48.782;9.252;2022-09-01T17:43:56;24.20;22.50
439;DHT22;206;48.782;9.252;2022-09-01T17:46:39;24.20;22.50
439;DHT22;206;48.782;9.252;2022-09-01T17:49:14;24.30;22.10
439;DHT22;206;48.782;9.252;2022-09-01T17:54:25;24.30;21.60
439;DHT22;206;48.782;9.252;2022-09-01T17:57:14;24.30;21.70
439;DHT22;206;48.782;9.252;2022-09-01T17:59:47;24.30;21.10
439;DHT22;206;48.782;9.252;2022-09-01T18:02:46;24.30;21.10
439;DHT22;206;48.782;9.252;2022-09-01T18:05:17;24.30;21.10
439;DHT22;206;48.782;9.252;2022-09-01T18:13:22;24.20;21.10
439;DHT22;206;48.782;9.252;2022-09-01T18:15:51;24.10;22.20
439;DHT22;206;48.782;9.252;2022-09-01T18:20:58;24.00;22.30
439;DHT22;206;48.782;9.252;2022-09-01T18:23:29;23.80;21.50
439;DHT22;206;48.782;9.252;2022-09-01T18:28:37;23.70;22.30
439;DHT22;206;48.782;9.252;2022-09-01T18:39:31;23.30;23.30
439;DHT22;206;48.782;9.252;2022-09-01T18:42:16;23.10;22.50
439;DHT22;206;48.782;9.252;2022-09-01T18:47:57;23.00;22.60
439;DHT22;206;48.782;9.252;2022-09-01T18:50:30;22.90;22.50
439;DHT22;206;48.782;9.252;2022-09-01T18:55:59;22.80;22.70
439;DHT22;206;48.782;9.252;2022-09-01T19:14:46;22.40;23.00